Ocean Spirit of Moray — MVXF5 — position and weather

sailwx.info

Track history (hours):
 
Tides and Currents Weather Stations Pressure Air Temp Water Temp Dewpoint Dewpoint Depression Visibility Wind Speed Wind Dir Waves Ship Positions

Ocean Spirit of Moray (United Kingdom)

Ship's website: http://www.gordonstoun.org.uk/

Last reported at 2017-Sep-28 11:00 UTC. Time now 2017-Oct-23 02:56 UTC.
Position N 56°46' W 005°12'.
Warning: this ship's position is 24 days out of date.

Length 24 m; draft 3 m.

Type: Sailing vessel. MMSI: 232007590.

Date/timePositionNaut miles runAvg speedWind from/ knotsBaromVisibWave heightAir tempDewpointWater temp
2017-Sep-28 11:00N 56°46' W 005°12'4 7.2
2017-Sep-28 10:30N 56°43' W 005°15'2 4.4
2017-Sep-28 09:59N 56°41' W 005°17'7 0.5
2017-Sep-27 18:23N 56°35' W 005°26'3 7.8
2017-Sep-27 17:58N 56°33' W 005°30'43 1.4
2017-Sep-26 11:13N 57°16' W 005°39'1 6.5
2017-Sep-26 11:00N 57°16' W 005°41'3 6.7
2017-Sep-26 10:30N 57°17' W 005°47'2 4.6
2017-Sep-26 10:00N 57°19' W 005°45'3 5.6
2017-Sep-26 09:27N 57°21' W 005°41'1 0.4
2017-Sep-26 05:39N 57°21' W 005°38'0 0.0
2017-Sep-26 05:30N 57°21' W 005°38'0 0.0
2017-Sep-26 04:48N 57°21' W 005°38'0 0.0
2017-Sep-26 03:27N 57°21' W 005°38'0 0.0
2017-Sep-26 03:00N 57°21' W 005°38'0 0.0
2017-Sep-26 02:18N 57°21' W 005°38'0 0.0
2017-Sep-26 01:03N 57°21' W 005°38'0 0.0
2017-Sep-26 00:42N 57°21' W 005°38'0 0.0
2017-Sep-26 00:27N 57°21' W 005°38'0 0.0
2017-Sep-25 23:42N 57°21' W 005°38'0 0.0
2017-Sep-25 22:39N 57°21' W 005°38'0 0.0
2017-Sep-25 22:30N 57°21' W 005°38'0 0.0
2017-Sep-25 19:42N 57°21' W 005°38'0 0.0
2017-Sep-25 19:24N 57°21' W 005°38'0 0.0
2017-Sep-25 14:48N 57°21' W 005°38'0 0.0
2017-Sep-25 13:24N 57°21' W 005°38'0 0.0
2017-Sep-25 11:18N 57°21' W 005°38'0 0.0
2017-Sep-25 05:30N 57°21' W 005°38'0 0.0
2017-Sep-25 03:51N 57°21' W 005°38'0 0.0
2017-Sep-25 01:30N 57°21' W 005°38'0 0.0
2017-Sep-25 00:57N 57°21' W 005°38'0 0.0
2017-Sep-25 00:12N 57°21' W 005°38'0 0.0
2017-Sep-24 22:30N 57°21' W 005°38'0 0.0
2017-Sep-24 20:39N 57°21' W 005°38'0 0.0
2017-Sep-24 20:21N 57°21' W 005°38'0 0.0
2017-Sep-24 19:42N 57°21' W 005°38'0 0.0
2017-Sep-24 17:30N 57°21' W 005°38'0 0.0
2017-Sep-24 16:57N 57°21' W 005°38'0 0.0
2017-Sep-24 16:30N 57°21' W 005°38'1 2.7
2017-Sep-24 16:00N 57°21' W 005°41'3 6.9
2017-Sep-24 15:30N 57°19' W 005°46'1 2.4
2017-Sep-24 15:00N 57°20' W 005°48'1 2.9
2017-Sep-24 14:29N 57°19' W 005°51'1 2.4
2017-Sep-24 14:00N 57°20' W 005°53'1 2.3
2017-Sep-24 13:30N 57°21' W 005°52'1 1.5
2017-Sep-24 13:00N 57°20' W 005°53'2 4.7
2017-Sep-24 12:30N 57°19' W 005°49'3 5.1
2017-Sep-24 11:59N 57°20' W 005°45'1 1.8
2017-Sep-24 11:29N 57°21' W 005°44'2 4.2
2017-Sep-24 10:59N 57°21' W 005°40'1 0.5
2017-Sep-24 09:03N 57°21' W 005°38'0 0.1
2017-Sep-24 08:50N 57°21' W 005°38'0 0.0
2017-Sep-24 08:23N 57°21' W 005°38'0 0.0
2017-Sep-24 04:53N 57°21' W 005°38'0 0.0
2017-Sep-24 04:30N 57°21' W 005°38'0 0.0
2017-Sep-24 03:50N 57°21' W 005°38'0 0.0
2017-Sep-24 03:29N 57°21' W 005°38'0 0.0
2017-Sep-24 02:53N 57°21' W 005°38'0 0.0
2017-Sep-24 02:30N 57°21' W 005°38'0 0.0
2017-Sep-24 01:56N 57°21' W 005°38'0 0.0
2017-Sep-24 01:26N 57°21' W 005°38'0 0.0
2017-Sep-24 00:59N 57°21' W 005°38'0 0.0
2017-Sep-24 00:23N 57°21' W 005°38'0 0.0
2017-Sep-23 23:53N 57°21' W 005°38'0 0.0
2017-Sep-23 22:29N 57°21' W 005°38'0 0.0
2017-Sep-23 19:41N 57°21' W 005°38'0 0.0
2017-Sep-22 00:35N 57°21' W 005°38'0 0.0
2017-Sep-21 22:12N 57°21' W 005°38'0 0.0
2017-Sep-21 15:29N 57°21' W 005°38'0 0.0
2017-Sep-21 12:26N 57°21' W 005°38'0 0.0
2017-Sep-21 11:38N 57°21' W 005°38'0 0.0
2017-Sep-21 08:44N 57°21' W 005°38'0 0.0
2017-Sep-21 08:29N 57°21' W 005°38'0 0.0
2017-Sep-21 07:56N 57°21' W 005°38'0 0.0
2017-Sep-21 05:35N 57°21' W 005°38'0 0.0
2017-Sep-21 05:17N 57°21' W 005°38'0 0.0
2017-Sep-21 04:02N 57°21' W 005°38'0 0.0
2017-Sep-21 03:59N 57°21' W 005°38'0 0.0
2017-Sep-21 03:26N 57°21' W 005°38'0 0.0
2017-Sep-21 02:59N 57°21' W 005°38'0 0.0
2017-Sep-21 02:26N 57°21' W 005°38'0 0.0
2017-Sep-21 01:47N 57°21' W 005°38'0 0.0
2017-Sep-21 01:14N 57°21' W 005°38'0 0.0
2017-Sep-21 00:08N 57°21' W 005°38'0 0.0
2017-Sep-20 22:08N 57°21' W 005°38'0 0.0
2017-Sep-20 21:53N 57°21' W 005°38'0 0.0
2017-Sep-20 21:26N 57°21' W 005°38'0 0.0
2017-Sep-20 20:08N 57°21' W 005°38'0 0.0
2017-Sep-20 19:44N 57°21' W 005°38'0 0.0
2017-Sep-20 17:50N 57°21' W 005°38'0 0.0
2017-Sep-20 17:23N 57°21' W 005°38'0 0.0
2017-Sep-20 16:32N 57°21' W 005°38'0 0.0
2017-Sep-20 16:23N 57°21' W 005°38'0 0.0
2017-Sep-20 15:04N 57°21' W 005°38'0 3.7
2017-Sep-20 14:57N 57°21' W 005°39'6 5.8
2017-Sep-20 14:00N 57°17' W 005°45'  
Track history (hours):
 
Tides and Currents Weather Stations Pressure Air Temp Water Temp Dewpoint Dewpoint Depression Visibility Wind Speed Wind Dir Waves Ship Positions

Ocean Spirit of Moray (United Kingdom)

Ship's website: http://www.gordonstoun.org.uk/

Last reported at 2017-Sep-28 11:00 UTC. Time now 2017-Oct-23 02:56 UTC.
Position N 56°46' W 005°12'.
Warning: this ship's position is 24 days out of date.

Length 24 m; draft 3 m.

Type: Sailing vessel. MMSI: 232007590.

Date/timePositionNaut miles runAvg speedWind from/ knotsBaromVisibWave heightAir tempDewpointWater temp
2017-Sep-28 11:00N 56°46' W 005°12'4 7.2
2017-Sep-28 10:30N 56°43' W 005°15'2 4.4
2017-Sep-28 09:59N 56°41' W 005°17'7 0.5
2017-Sep-27 18:23N 56°35' W 005°26'3 7.8
2017-Sep-27 17:58N 56°33' W 005°30'43 1.4
2017-Sep-26 11:13N 57°16' W 005°39'1 6.5
2017-Sep-26 11:00N 57°16' W 005°41'3 6.7
2017-Sep-26 10:30N 57°17' W 005°47'2 4.6
2017-Sep-26 10:00N 57°19' W 005°45'3 5.6
2017-Sep-26 09:27N 57°21' W 005°41'1 0.4
2017-Sep-26 05:39N 57°21' W 005°38'0 0.0
2017-Sep-26 05:30N 57°21' W 005°38'0 0.0
2017-Sep-26 04:48N 57°21' W 005°38'0 0.0
2017-Sep-26 03:27N 57°21' W 005°38'0 0.0
2017-Sep-26 03:00N 57°21' W 005°38'0 0.0
2017-Sep-26 02:18N 57°21' W 005°38'0 0.0
2017-Sep-26 01:03N 57°21' W 005°38'0 0.0
2017-Sep-26 00:42N 57°21' W 005°38'0 0.0
2017-Sep-26 00:27N 57°21' W 005°38'0 0.0
2017-Sep-25 23:42N 57°21' W 005°38'0 0.0
2017-Sep-25 22:39N 57°21' W 005°38'0 0.0
2017-Sep-25 22:30N 57°21' W 005°38'0 0.0
2017-Sep-25 19:42N 57°21' W 005°38'0 0.0
2017-Sep-25 19:24N 57°21' W 005°38'0 0.0
2017-Sep-25 14:48N 57°21' W 005°38'0 0.0
2017-Sep-25 13:24N 57°21' W 005°38'0 0.0
2017-Sep-25 11:18N 57°21' W 005°38'0 0.0
2017-Sep-25 05:30N 57°21' W 005°38'0 0.0
2017-Sep-25 03:51N 57°21' W 005°38'0 0.0
2017-Sep-25 01:30N 57°21' W 005°38'0 0.0
2017-Sep-25 00:57N 57°21' W 005°38'0 0.0
2017-Sep-25 00:12N 57°21' W 005°38'0 0.0
2017-Sep-24 22:30N 57°21' W 005°38'0 0.0
2017-Sep-24 20:39N 57°21' W 005°38'0 0.0
2017-Sep-24 20:21N 57°21' W 005°38'0 0.0
2017-Sep-24 19:42N 57°21' W 005°38'0 0.0
2017-Sep-24 17:30N 57°21' W 005°38'0 0.0
2017-Sep-24 16:57N 57°21' W 005°38'0 0.0
2017-Sep-24 16:30N 57°21' W 005°38'1 2.7
2017-Sep-24 16:00N 57°21' W 005°41'3 6.9
2017-Sep-24 15:30N 57°19' W 005°46'1 2.4
2017-Sep-24 15:00N 57°20' W 005°48'1 2.9
2017-Sep-24 14:29N 57°19' W 005°51'1 2.4
2017-Sep-24 14:00N 57°20' W 005°53'1 2.3
2017-Sep-24 13:30N 57°21' W 005°52'1 1.5
2017-Sep-24 13:00N 57°20' W 005°53'2 4.7
2017-Sep-24 12:30N 57°19' W 005°49'3 5.1
2017-Sep-24 11:59N 57°20' W 005°45'1 1.8
2017-Sep-24 11:29N 57°21' W 005°44'2 4.2
2017-Sep-24 10:59N 57°21' W 005°40'1 0.5
2017-Sep-24 09:03N 57°21' W 005°38'0 0.1
2017-Sep-24 08:50N 57°21' W 005°38'0 0.0
2017-Sep-24 08:23N 57°21' W 005°38'0 0.0
2017-Sep-24 04:53N 57°21' W 005°38'0 0.0
2017-Sep-24 04:30N 57°21' W 005°38'0 0.0
2017-Sep-24 03:50N 57°21' W 005°38'0 0.0
2017-Sep-24 03:29N 57°21' W 005°38'0 0.0
2017-Sep-24 02:53N 57°21' W 005°38'0 0.0
2017-Sep-24 02:30N 57°21' W 005°38'0 0.0
2017-Sep-24 01:56N 57°21' W 005°38'0 0.0
2017-Sep-24 01:26N 57°21' W 005°38'0 0.0
2017-Sep-24 00:59N 57°21' W 005°38'0 0.0
2017-Sep-24 00:23N 57°21' W 005°38'0 0.0
2017-Sep-23 23:53N 57°21' W 005°38'0 0.0
2017-Sep-23 22:29N 57°21' W 005°38'0 0.0
2017-Sep-23 19:41N 57°21' W 005°38'0 0.0
2017-Sep-22 00:35N 57°21' W 005°38'0 0.0
2017-Sep-21 22:12N 57°21' W 005°38'0 0.0
2017-Sep-21 15:29N 57°21' W 005°38'0 0.0
2017-Sep-21 12:26N 57°21' W 005°38'0 0.0
2017-Sep-21 11:38N 57°21' W 005°38'0 0.0
2017-Sep-21 08:44N 57°21' W 005°38'0 0.0
2017-Sep-21 08:29N 57°21' W 005°38'0 0.0
2017-Sep-21 07:56N 57°21' W 005°38'0 0.0
2017-Sep-21 05:35N 57°21' W 005°38'0 0.0
2017-Sep-21 05:17N 57°21' W 005°38'0 0.0
2017-Sep-21 04:02N 57°21' W 005°38'0 0.0
2017-Sep-21 03:59N 57°21' W 005°38'0 0.0
2017-Sep-21 03:26N 57°21' W 005°38'0 0.0
2017-Sep-21 02:59N 57°21' W 005°38'0 0.0
2017-Sep-21 02:26N 57°21' W 005°38'0 0.0
2017-Sep-21 01:47N 57°21' W 005°38'0 0.0
2017-Sep-21 01:14N 57°21' W 005°38'0 0.0
2017-Sep-21 00:08N 57°21' W 005°38'0 0.0
2017-Sep-20 22:08N 57°21' W 005°38'0 0.0
2017-Sep-20 21:53N 57°21' W 005°38'0 0.0
2017-Sep-20 21:26N 57°21' W 005°38'0 0.0
2017-Sep-20 20:08N 57°21' W 005°38'0 0.0
2017-Sep-20 19:44N 57°21' W 005°38'0 0.0
2017-Sep-20 17:50N 57°21' W 005°38'0 0.0
2017-Sep-20 17:23N 57°21' W 005°38'0 0.0
2017-Sep-20 16:32N 57°21' W 005°38'0 0.0
2017-Sep-20 16:23N 57°21' W 005°38'0 0.0
2017-Sep-20 15:04N 57°21' W 005°38'0 3.7
2017-Sep-20 14:57N 57°21' W 005°39'6 5.8
2017-Sep-20 14:00N 57°17' W 005°45'  

Dump ship's entire track history